createdAt,value
2022-08-23T00:00:51.894Z,21.44
2022-08-23T00:01:52.204Z,21.42
2022-08-23T00:02:51.912Z,21.44
2022-08-23T00:03:51.776Z,21.41
2022-08-23T00:05:08.285Z,21.39
2022-08-23T00:05:51.994Z,21.41
2022-08-23T00:06:52.147Z,21.39
2022-08-23T00:07:51.993Z,21.37
2022-08-23T00:08:51.900Z,21.37
2022-08-23T00:09:51.957Z,21.37
2022-08-23T00:10:54.888Z,21.39
2022-08-23T00:11:52.140Z,21.4
2022-08-23T00:12:51.944Z,21.41
2022-08-23T00:13:51.777Z,21.41
2022-08-23T00:14:51.919Z,21.43
2022-08-23T00:15:51.931Z,21.47
2022-08-23T00:16:52.143Z,21.47
2022-08-23T00:17:51.837Z,21.47
2022-08-23T00:18:51.911Z,21.49
2022-08-23T00:19:51.960Z,21.52
2022-08-23T00:20:51.920Z,21.52
2022-08-23T00:21:57.825Z,21.53
2022-08-23T00:22:52.140Z,21.52
2022-08-23T00:23:51.881Z,21.51
2022-08-23T00:24:51.911Z,21.5
2022-08-23T00:25:51.888Z,21.51
2022-08-23T00:26:51.997Z,21.48
2022-08-23T00:27:57.858Z,21.45
2022-08-23T00:28:51.887Z,21.44
2022-08-23T00:29:51.787Z,21.44
2022-08-23T00:30:51.891Z,21.44
2022-08-23T00:31:51.972Z,21.42
2022-08-23T00:32:52.134Z,21.4
2022-08-23T00:33:51.906Z,21.39
2022-08-23T00:34:51.907Z,21.38
2022-08-23T00:35:51.944Z,21.37
2022-08-23T00:36:52.221Z,21.32
2022-08-23T00:38:30.419Z,21.26
2022-08-23T00:38:54.874Z,21.22
2022-08-23T00:39:52.042Z,21.3
2022-08-23T00:40:51.945Z,21.36
2022-08-23T00:41:51.867Z,21.36
2022-08-23T00:42:52.210Z,21.33
2022-08-23T00:43:51.963Z,21.27
2022-08-23T00:44:51.862Z,21.14
2022-08-23T00:45:51.769Z,21.08
2022-08-23T00:46:51.901Z,21.05
2022-08-23T00:47:52.223Z,21.02
2022-08-23T00:48:51.938Z,21.03
2022-08-23T00:49:54.910Z,21.02
2022-08-23T00:50:51.854Z,21.02
2022-08-23T00:51:53.114Z,21
2022-08-23T00:52:52.253Z,20.98
2022-08-23T00:53:51.887Z,20.98
2022-08-23T00:54:51.779Z,20.93
2022-08-23T00:55:51.974Z,20.91
2022-08-23T00:56:51.922Z,20.95
2022-08-23T00:57:52.144Z,20.95
2022-08-23T00:58:51.979Z,20.96
2022-08-23T00:59:51.888Z,20.95
2022-08-23T01:00:51.882Z,20.95
2022-08-23T01:01:52.007Z,20.94
2022-08-23T01:02:52.888Z,20.94
2022-08-23T01:04:04.403Z,20.92
2022-08-23T01:04:51.921Z,20.92
2022-08-23T01:05:54.756Z,20.94
2022-08-23T01:06:52.253Z,20.91
2022-08-23T01:07:51.985Z,20.89
2022-08-23T01:08:52.264Z,20.88
2022-08-23T01:09:51.985Z,20.85
2022-08-23T01:10:51.973Z,20.84
2022-08-23T01:11:51.918Z,20.88
2022-08-23T01:12:51.916Z,20.89
2022-08-23T01:13:52.143Z,20.88
2022-08-23T01:14:51.959Z,20.87
2022-08-23T01:15:51.867Z,20.87
2022-08-23T01:16:51.764Z,20.84
2022-08-23T01:17:51.793Z,20.84
2022-08-23T01:18:52.206Z,20.85
2022-08-23T01:19:51.841Z,20.86
2022-08-23T01:20:51.989Z,20.88
2022-08-23T01:21:52.142Z,20.87
2022-08-23T01:22:51.899Z,20.81
2022-08-23T01:23:52.131Z,20.81
2022-08-23T01:25:06.078Z,20.8
2022-08-23T01:25:51.884Z,20.82
2022-08-23T01:26:54.726Z,20.8
2022-08-23T01:27:51.969Z,20.8
2022-08-23T01:28:52.156Z,20.77
2022-08-23T01:29:51.935Z,20.76
2022-08-23T01:30:51.908Z,20.75
2022-08-23T01:31:51.891Z,20.74
2022-08-23T01:32:51.802Z,20.76
2022-08-23T01:33:52.206Z,20.75
2022-08-23T01:34:52.108Z,20.75
2022-08-23T01:35:51.968Z,20.72
2022-08-23T01:36:52.207Z,20.71
2022-08-23T01:37:51.769Z,20.68
2022-08-23T01:38:52.244Z,20.7
2022-08-23T01:39:51.831Z,20.68
2022-08-23T01:40:51.779Z,20.68
2022-08-23T01:41:51.917Z,20.67
2022-08-23T01:42:54.855Z,20.67
2022-08-23T01:43:52.136Z,20.69
2022-08-23T01:44:51.954Z,20.68
2022-08-23T01:45:51.888Z,20.7
2022-08-23T01:46:53.093Z,20.71
2022-08-23T01:47:51.907Z,20.69
2022-08-23T01:48:52.140Z,20.68
2022-08-23T01:49:51.898Z,20.69
2022-08-23T01:50:51.956Z,20.69
2022-08-23T01:51:52.213Z,20.63
2022-08-23T01:52:51.961Z,20.63
2022-08-23T01:53:55.139Z,20.63
2022-08-23T01:54:51.999Z,20.63
2022-08-23T01:55:51.961Z,20.63
2022-08-23T01:56:51.868Z,20.59
2022-08-23T01:57:52.001Z,20.58
2022-08-23T01:58:52.137Z,20.57
2022-08-23T01:59:51.773Z,20.55
2022-08-23T02:00:51.917Z,20.55
2022-08-23T02:01:51.989Z,20.52
2022-08-23T02:02:51.920Z,20.5
2022-08-23T02:04:04.932Z,20.43
2022-08-23T02:04:54.780Z,20.4
2022-08-23T02:07:00.543Z,20.38
2022-08-23T02:08:00.373Z,20.37
2022-08-23T02:09:00.480Z,20.36
2022-08-23T02:10:00.328Z,20.33
2022-08-23T02:11:00.315Z,20.29
2022-08-23T02:12:03.221Z,20.26
2022-08-23T02:13:00.314Z,20.24
2022-08-23T02:14:00.558Z,20.2
2022-08-23T02:15:00.307Z,20.2
2022-08-23T02:16:00.314Z,20.2
2022-08-23T02:17:03.514Z,20.15
2022-08-23T02:18:00.333Z,20.13
2022-08-23T02:19:00.540Z,20.11
2022-08-23T02:20:00.309Z,20.09
2022-08-23T02:21:00.244Z,20.07
2022-08-23T02:22:00.536Z,20.03
2022-08-23T02:23:03.271Z,20.01
2022-08-23T02:24:00.597Z,20.03
2022-08-23T02:25:00.182Z,20.03
2022-08-23T02:26:00.242Z,20.05
2022-08-23T02:27:00.259Z,20.05
2022-08-23T02:28:00.198Z,20.02
2022-08-23T02:29:00.604Z,20.03
2022-08-23T02:30:00.218Z,20
2022-08-23T02:31:00.310Z,19.99
2022-08-23T02:32:00.279Z,20
2022-08-23T02:33:00.325Z,19.97
2022-08-23T02:35:38.683Z,19.92
2022-08-23T02:36:38.622Z,19.93
2022-08-23T02:37:39.073Z,19.92
2022-08-23T02:38:38.711Z,19.88
2022-08-23T02:39:39.077Z,19.87
2022-08-23T02:40:41.636Z,19.87
2022-08-23T02:41:38.729Z,19.85
2022-08-23T02:42:38.671Z,19.81
2022-08-23T02:43:41.023Z,19.8
2022-08-23T02:44:39.064Z,19.79
2022-08-23T02:45:38.725Z,19.79
2022-08-23T02:46:38.635Z,19.79
2022-08-23T02:47:38.625Z,19.76
2022-08-23T02:48:38.629Z,19.77
2022-08-23T02:49:39.066Z,19.81
2022-08-23T02:50:38.716Z,19.8
2022-08-23T02:51:41.625Z,19.77
2022-08-23T02:52:38.993Z,19.73
2022-08-23T02:53:38.695Z,19.7
2022-08-23T02:54:38.994Z,19.66
2022-08-23T02:55:38.709Z,19.67
2022-08-23T02:56:38.611Z,19.66
2022-08-23T02:57:38.619Z,19.65
2022-08-23T02:58:38.631Z,19.65
2022-08-23T02:59:39.059Z,19.65
2022-08-23T03:00:38.700Z,19.67
2022-08-23T03:01:38.734Z,19.67
2022-08-23T03:02:41.774Z,19.64
2022-08-23T03:03:38.720Z,19.63
2022-08-23T03:04:39.011Z,19.61
2022-08-23T03:05:38.693Z,19.6
2022-08-23T03:06:38.746Z,19.55
2022-08-23T03:07:39.066Z,19.55
2022-08-23T03:08:38.618Z,19.51
2022-08-23T03:09:38.632Z,19.52
2022-08-23T03:10:38.635Z,19.53
2022-08-23T03:11:38.702Z,19.5
2022-08-23T03:12:38.643Z,19.48
2022-08-23T03:13:38.619Z,19.45
2022-08-23T03:14:38.992Z,19.42
2022-08-23T03:15:38.702Z,19.39
2022-08-23T03:16:38.701Z,19.39
2022-08-23T03:17:38.635Z,19.4
2022-08-23T03:18:41.596Z,19.4
2022-08-23T03:19:38.996Z,19.38
2022-08-23T03:20:38.715Z,19.38
2022-08-23T03:21:38.626Z,19.37
2022-08-23T03:22:39.063Z,19.35
2022-08-23T03:23:38.710Z,19.34
2022-08-23T03:24:44.649Z,19.34
2022-08-23T03:25:38.700Z,19.33
2022-08-23T03:26:38.622Z,19.29
2022-08-23T03:27:44.735Z,19.26
2022-08-23T03:28:38.635Z,19.27
2022-08-23T03:29:39.067Z,19.26
2022-08-23T03:30:38.632Z,19.26
2022-08-23T03:31:38.691Z,19.26
2022-08-23T03:32:38.667Z,19.25
2022-08-23T03:33:38.747Z,19.25
2022-08-23T03:34:39.023Z,19.25
2022-08-23T03:35:38.568Z,19.25
2022-08-23T03:36:38.760Z,19.37
2022-08-23T03:37:38.925Z,19.41
2022-08-23T03:38:38.555Z,19.27
2022-08-23T03:39:39.099Z,19.31
2022-08-23T03:40:41.683Z,19.23
2022-08-23T03:41:38.768Z,19.17
2022-08-23T03:42:38.737Z,19.14
2022-08-23T03:43:38.669Z,19.12
2022-08-23T03:44:38.928Z,19.12
2022-08-23T03:45:38.778Z,19.09
2022-08-23T03:46:41.593Z,19.08
2022-08-23T03:47:38.663Z,19.08
2022-08-23T03:48:38.560Z,19.07
2022-08-23T03:49:38.680Z,19.08
2022-08-23T03:50:38.577Z,19.1
2022-08-23T03:51:38.564Z,19.1
2022-08-23T03:52:38.917Z,19.08
2022-08-23T03:53:38.703Z,19.07
2022-08-23T03:54:38.930Z,19.06
2022-08-23T03:55:42.091Z,19.07
2022-08-23T03:56:38.570Z,19.1
2022-08-23T03:57:41.677Z,19.09
2022-08-23T03:58:38.759Z,19.08
2022-08-23T03:59:38.919Z,19.07
2022-08-23T04:00:38.735Z,19.07
2022-08-23T04:01:38.773Z,19.05
2022-08-23T04:02:38.707Z,19.03
2022-08-23T04:03:41.674Z,19.03
2022-08-23T04:04:38.733Z,19.03
2022-08-23T04:05:38.650Z,19.03
2022-08-23T04:06:38.701Z,19.03
2022-08-23T04:07:38.956Z,19.02
2022-08-23T04:08:38.732Z,19
2022-08-23T04:09:38.921Z,19.03
2022-08-23T04:10:38.689Z,19
2022-08-23T04:11:38.776Z,18.99
2022-08-23T04:12:38.717Z,18.98
2022-08-23T04:13:38.555Z,18.99
2022-08-23T04:14:41.644Z,18.97
2022-08-23T04:15:38.715Z,18.98
2022-08-23T04:16:38.663Z,18.94
2022-08-23T04:17:38.625Z,18.93
2022-08-23T04:18:38.568Z,18.92
2022-08-23T04:19:39.000Z,18.94
2022-08-23T04:20:38.688Z,18.95
2022-08-23T04:21:38.646Z,18.96
2022-08-23T04:22:38.933Z,18.96
2022-08-23T04:23:38.735Z,18.97
2022-08-23T04:24:39.021Z,18.99
2022-08-23T04:25:41.694Z,19
2022-08-23T04:26:38.761Z,19.01
2022-08-23T04:27:38.721Z,19.03
2022-08-23T04:28:38.687Z,19.03
2022-08-23T04:29:38.920Z,19.03
2022-08-23T04:30:38.612Z,19.04
2022-08-23T04:31:38.745Z,19.02
2022-08-23T04:32:38.558Z,18.97
2022-08-23T04:33:40.295Z,18.96
2022-08-23T04:34:38.923Z,18.96
2022-08-23T04:35:38.747Z,18.96
2022-08-23T04:36:41.565Z,18.95
2022-08-23T04:37:38.939Z,18.94
2022-08-23T04:38:38.758Z,18.96
2022-08-23T04:39:39.162Z,18.96
2022-08-23T04:40:38.738Z,18.99
2022-08-23T04:41:38.701Z,19.01
2022-08-23T04:42:38.608Z,18.99
2022-08-23T04:43:38.640Z,19
2022-08-23T04:44:39.000Z,18.99
2022-08-23T04:45:38.742Z,18.99
2022-08-23T04:46:38.672Z,18.99
2022-08-23T04:47:41.655Z,19.04
2022-08-23T04:48:38.743Z,19.01
2022-08-23T04:49:38.922Z,19
2022-08-23T04:50:38.749Z,19.01
2022-08-23T04:51:38.549Z,19.04
2022-08-23T04:52:38.998Z,19.04
2022-08-23T04:53:38.698Z,19.04
2022-08-23T04:54:38.654Z,19.04
2022-08-23T04:55:38.554Z,19.03
2022-08-23T04:56:38.677Z,19.05
2022-08-23T04:57:38.659Z,19.07
2022-08-23T04:58:41.708Z,19.07
2022-08-23T04:59:39.042Z,19.08
2022-08-23T05:00:38.779Z,19.09
2022-08-23T05:01:38.654Z,19.11
2022-08-23T05:02:38.527Z,19.12
2022-08-23T05:03:38.764Z,19.15
2022-08-23T05:04:38.919Z,19.14
2022-08-23T05:05:38.715Z,19.16
2022-08-23T05:06:38.775Z,19.17
2022-08-23T05:07:42.297Z,19.16
2022-08-23T05:08:38.660Z,19.17
2022-08-23T05:09:44.582Z,19.17
2022-08-23T05:10:38.773Z,19.18
2022-08-23T05:11:38.768Z,19.23
2022-08-23T05:12:38.771Z,19.24
2022-08-23T05:13:38.558Z,19.23
2022-08-23T05:14:38.992Z,19.38
2022-08-23T05:15:41.578Z,19.32
2022-08-23T05:16:38.763Z,19.26
2022-08-23T05:17:38.567Z,19.24
2022-08-23T05:18:38.639Z,19.24
2022-08-23T05:19:44.267Z,19.26
2022-08-23T05:20:38.762Z,19.26
2022-08-23T05:21:38.702Z,19.24
2022-08-23T05:22:38.939Z,19.21
2022-08-23T05:23:38.753Z,19.23
2022-08-23T05:24:38.924Z,19.24
2022-08-23T05:25:38.734Z,19.24
2022-08-23T05:26:38.707Z,19.21
2022-08-23T05:27:38.657Z,19.2
2022-08-23T05:28:38.672Z,19.2
2022-08-23T05:29:38.919Z,19.2
2022-08-23T05:30:38.763Z,19.19
2022-08-23T05:31:38.644Z,19.22
2022-08-23T05:32:38.696Z,19.2
2022-08-23T05:33:38.744Z,19.22
2022-08-23T05:34:39.000Z,19.22
2022-08-23T05:35:38.772Z,19.27
2022-08-23T05:36:48.286Z,19.32
2022-08-23T05:37:38.919Z,19.33
2022-08-23T05:38:38.722Z,19.38
2022-08-23T05:39:39.154Z,19.4
2022-08-23T05:40:38.703Z,19.45
2022-08-23T05:41:38.728Z,19.49
2022-08-23T05:42:38.701Z,19.58
2022-08-23T05:43:38.580Z,19.66
2022-08-23T05:44:38.994Z,19.68
2022-08-23T05:45:38.653Z,19.71
2022-08-23T05:46:38.670Z,19.74
2022-08-23T05:47:41.567Z,19.73
2022-08-23T05:48:38.735Z,19.74
2022-08-23T05:49:38.914Z,19.78
2022-08-23T05:50:38.718Z,19.82
2022-08-23T05:51:38.684Z,19.89
2022-08-23T05:52:38.925Z,20.15
2022-08-23T05:53:38.647Z,20.15
2022-08-23T05:54:38.991Z,20.07
2022-08-23T05:55:38.782Z,20.07
2022-08-23T05:56:38.665Z,20.3
2022-08-23T05:57:38.657Z,20.94
2022-08-23T05:58:41.663Z,22.23
2022-08-23T05:59:38.920Z,23.45
2022-08-23T06:00:40.494Z,24.48
2022-08-23T06:01:38.746Z,25.21
2022-08-23T06:02:38.694Z,25.36
2022-08-23T06:03:38.709Z,25.62
2022-08-23T06:04:38.670Z,26
2022-08-23T06:05:38.686Z,26.31
2022-08-23T06:06:38.754Z,26.2
2022-08-23T06:07:38.989Z,26.5
2022-08-23T06:08:38.775Z,26.67
2022-08-23T06:09:44.612Z,27.01
2022-08-23T06:10:42.225Z,27.61
2022-08-23T06:11:38.651Z,28.06
2022-08-23T06:12:38.702Z,28.02
2022-08-23T06:13:38.704Z,28.37
2022-08-23T06:14:38.925Z,28.17
2022-08-23T06:15:38.680Z,27.81
2022-08-23T06:16:38.666Z,27.67
2022-08-23T06:17:38.722Z,27.51
2022-08-23T06:18:38.691Z,27.82
2022-08-23T06:19:38.932Z,28.08
2022-08-23T06:20:41.769Z,28.35
2022-08-23T06:21:38.742Z,28.51
2022-08-23T06:22:39.020Z,28.94
2022-08-23T06:23:38.785Z,29.11
2022-08-23T06:24:38.923Z,29.2
2022-08-23T06:25:38.634Z,29.43
2022-08-23T06:26:38.677Z,29.94
2022-08-23T06:27:38.750Z,30.52
2022-08-23T06:28:50.497Z,30.94
2022-08-23T06:29:38.953Z,31.09
2022-08-23T06:30:39.815Z,30.75
2022-08-23T06:31:41.574Z,30.42
2022-08-23T06:32:38.797Z,30.09
2022-08-23T06:33:38.802Z,29.82
2022-08-23T06:34:38.915Z,29.39
2022-08-23T06:35:40.237Z,29.26
2022-08-23T06:36:38.683Z,29.77
2022-08-23T06:37:38.919Z,30.49
2022-08-23T06:38:38.585Z,30.46
2022-08-23T06:39:39.153Z,30.56
2022-08-23T06:40:38.742Z,30.36
2022-08-23T06:41:38.718Z,30.43
2022-08-23T06:42:41.667Z,30.55
2022-08-23T06:43:38.772Z,30.88
2022-08-23T06:44:38.926Z,30.81
2022-08-23T06:45:38.611Z,30.94
2022-08-23T06:46:38.793Z,31.06
2022-08-23T06:47:38.747Z,31.95
2022-08-23T06:48:38.666Z,32.15
2022-08-23T06:49:38.928Z,32.41
2022-08-23T06:50:38.646Z,32.63
2022-08-23T06:51:38.601Z,32.42
2022-08-23T06:52:39.025Z,32.38
2022-08-23T06:53:38.722Z,32.67
2022-08-23T06:54:38.997Z,32.63
2022-08-23T06:55:38.778Z,32.12
2022-08-23T06:56:38.695Z,31.93
2022-08-23T06:57:38.773Z,31.99
2022-08-23T06:58:41.682Z,31.68
2022-08-23T06:59:38.936Z,31.49
2022-08-23T07:00:38.819Z,31.29
2022-08-23T07:01:45.772Z,31.34
2022-08-23T07:02:38.668Z,31.67
2022-08-23T07:03:38.592Z,32.23
2022-08-23T07:04:38.931Z,32.84
2022-08-23T07:05:38.654Z,32.91
2022-08-23T07:06:38.641Z,33.24
2022-08-23T07:07:41.367Z,33.6
2022-08-23T07:08:38.757Z,33.56
2022-08-23T07:09:44.636Z,33.35
2022-08-23T07:10:38.772Z,33.85
2022-08-23T07:11:38.639Z,34.43
2022-08-23T07:12:38.704Z,34.17
2022-08-23T07:13:38.662Z,32.76
2022-08-23T07:14:39.030Z,32.09
2022-08-23T07:15:41.631Z,32.49
2022-08-23T07:16:38.888Z,32.04
2022-08-23T07:17:38.565Z,31.68
2022-08-23T07:18:38.724Z,31.62
2022-08-23T07:19:38.920Z,31.46
2022-08-23T07:20:38.570Z,31.71
2022-08-23T07:21:38.662Z,32.56
2022-08-23T07:22:38.696Z,32.86
2022-08-23T07:23:38.765Z,32.65
2022-08-23T07:24:39.007Z,32.84
2022-08-23T07:25:38.755Z,33.42
2022-08-23T07:26:41.552Z,34.02
2022-08-23T07:27:39.508Z,34.27
2022-08-23T07:28:38.653Z,34.6
2022-08-23T07:29:38.998Z,34.7
2022-08-23T07:30:41.045Z,34.81
2022-08-23T07:31:38.694Z,34.63
2022-08-23T07:32:38.673Z,33.83
2022-08-23T07:33:38.664Z,33.5
2022-08-23T07:34:38.931Z,33.78
2022-08-23T07:35:40.394Z,33.95
2022-08-23T07:36:38.784Z,34.32
2022-08-23T07:37:44.615Z,34.5
2022-08-23T07:38:39.698Z,34.42
2022-08-23T07:39:39.130Z,33.95
2022-08-23T07:40:40.620Z,33.46
2022-08-23T07:41:38.687Z,33.1
2022-08-23T07:42:38.553Z,30.53
2022-08-23T07:43:38.674Z,29.05
2022-08-23T07:44:39.053Z,28.13
2022-08-23T07:45:38.768Z,27.27
2022-08-23T07:46:38.687Z,26.69
2022-08-23T07:47:38.672Z,26.1
2022-08-23T07:48:54.095Z,25.58
2022-08-23T07:49:38.928Z,25.11
2022-08-23T07:50:38.670Z,24.9
2022-08-23T07:51:38.655Z,24.95
2022-08-23T07:52:39.006Z,24.96
2022-08-23T07:53:39.758Z,24.86
2022-08-23T07:54:38.656Z,24.91
2022-08-23T07:55:38.638Z,24.99
2022-08-23T07:56:38.672Z,25.03
2022-08-23T07:57:38.762Z,24.96
2022-08-23T07:58:38.759Z,25.01
2022-08-23T07:59:41.583Z,25.13
2022-08-23T08:00:38.727Z,25.1
2022-08-23T08:01:38.602Z,25.05
2022-08-23T08:02:38.730Z,25.1
2022-08-23T08:03:38.623Z,25.29
2022-08-23T08:04:38.663Z,25.33
2022-08-23T08:05:38.706Z,25.26
2022-08-23T08:06:38.695Z,25.2
2022-08-23T08:07:38.964Z,25.04
2022-08-23T08:08:38.741Z,25.05
2022-08-23T08:09:38.998Z,25.08
2022-08-23T08:10:41.689Z,24.98
2022-08-23T08:11:38.664Z,25.1
2022-08-23T08:12:38.705Z,25.12
2022-08-23T08:13:38.758Z,25.24
2022-08-23T08:14:38.990Z,25.29
2022-08-23T08:15:38.667Z,25.3
2022-08-23T08:16:38.585Z,25.39
2022-08-23T08:17:38.668Z,25.35
2022-08-23T08:18:38.646Z,25.28
2022-08-23T08:19:39.009Z,25.3
2022-08-23T08:20:38.641Z,25.32
2022-08-23T08:21:42.026Z,25.33
2022-08-23T08:22:38.963Z,25.52
2022-08-23T08:23:38.653Z,25.6
2022-08-23T08:24:38.989Z,25.68
2022-08-23T08:25:38.796Z,25.71
2022-08-23T08:26:38.755Z,25.77
2022-08-23T08:27:38.643Z,25.8
2022-08-23T08:28:38.660Z,25.92
2022-08-23T08:29:38.930Z,25.93
2022-08-23T08:30:38.773Z,25.91
2022-08-23T08:31:38.822Z,25.88
2022-08-23T08:32:47.265Z,25.96
2022-08-23T08:33:38.652Z,26.1
2022-08-23T08:34:39.000Z,26.22
2022-08-23T08:35:38.734Z,26.22
2022-08-23T08:36:38.664Z,26.11
2022-08-23T08:37:39.020Z,26.12
2022-08-23T08:38:38.841Z,26.08
2022-08-23T08:39:38.990Z,26.15
2022-08-23T08:40:38.720Z,26.27
2022-08-23T08:41:38.569Z,26.23
2022-08-23T08:42:38.675Z,26.29
2022-08-23T08:43:41.674Z,26.34
2022-08-23T08:44:38.612Z,26.32
2022-08-23T08:45:38.693Z,26.36
2022-08-23T08:46:38.783Z,26.44
2022-08-23T08:47:38.597Z,26.47
2022-08-23T08:48:38.563Z,26.53
2022-08-23T08:49:38.930Z,26.53
2022-08-23T08:50:38.678Z,26.57
2022-08-23T08:51:38.741Z,26.4
2022-08-23T08:52:38.996Z,26.28
2022-08-23T08:53:38.915Z,26.31
2022-08-23T08:54:48.040Z,26.4
2022-08-23T08:55:38.736Z,26.41
2022-08-23T08:56:38.695Z,26.37
2022-08-23T08:57:38.769Z,26.5
2022-08-23T08:58:38.693Z,26.66
2022-08-23T08:59:38.924Z,26.75
2022-08-23T09:00:38.676Z,26.83
2022-08-23T09:01:38.753Z,26.92
2022-08-23T09:02:38.805Z,27.04
2022-08-23T09:03:38.812Z,27.16
2022-08-23T09:04:38.995Z,27.22
2022-08-23T09:05:41.674Z,27.26
2022-08-23T09:06:38.722Z,27.02
2022-08-23T09:07:39.055Z,26.9
2022-08-23T09:08:38.760Z,26.97
2022-08-23T09:09:38.921Z,27.07
2022-08-23T09:10:38.757Z,27.14
2022-08-23T09:11:38.662Z,27.09
2022-08-23T09:12:38.679Z,26.96
2022-08-23T09:13:40.294Z,27.1
2022-08-23T09:14:39.004Z,27.23
2022-08-23T09:15:38.731Z,27.26
2022-08-23T09:16:41.550Z,27.29
2022-08-23T09:17:38.648Z,27.47
2022-08-23T09:18:38.654Z,27.46
2022-08-23T09:19:38.996Z,27.44
2022-08-23T09:20:38.759Z,27.4
2022-08-23T09:21:38.698Z,27.4
2022-08-23T09:22:38.953Z,27.47
2022-08-23T09:23:38.563Z,27.43
2022-08-23T09:24:39.714Z,27.33
2022-08-23T09:25:38.666Z,27.31
2022-08-23T09:26:38.667Z,27.14
2022-08-23T09:27:41.661Z,27.09
2022-08-23T09:28:38.692Z,27.22
2022-08-23T09:29:38.999Z,27.39
2022-08-23T09:30:38.733Z,27.41
2022-08-23T09:31:38.865Z,27.46
2022-08-23T09:32:38.697Z,27.52
2022-08-23T09:33:38.636Z,27.6
2022-08-23T09:34:38.562Z,27.75
2022-08-23T09:35:38.664Z,27.86
2022-08-23T09:36:38.675Z,27.88
2022-08-23T09:37:39.052Z,27.97
2022-08-23T09:38:43.362Z,27.95
2022-08-23T09:39:39.157Z,28.04
2022-08-23T09:40:41.387Z,28.09
2022-08-23T09:41:38.701Z,28.25
2022-08-23T09:42:38.732Z,28.16
2022-08-23T09:43:38.702Z,28.13
2022-08-23T09:44:38.933Z,28.23
2022-08-23T09:45:38.640Z,28.29
2022-08-23T09:46:38.653Z,28.37
2022-08-23T09:47:44.547Z,28.27
2022-08-23T09:48:38.671Z,28.3
2022-08-23T09:49:44.607Z,28.5
2022-08-23T09:50:38.744Z,28.45
2022-08-23T09:51:38.752Z,28.26
2022-08-23T09:52:38.936Z,28.21
2022-08-23T09:53:40.842Z,28.21
2022-08-23T09:54:41.998Z,28.2
2022-08-23T09:55:38.679Z,28.22
2022-08-23T09:56:38.685Z,28.37
2022-08-23T09:57:38.746Z,28.51
2022-08-23T09:58:38.664Z,28.65
2022-08-23T09:59:38.916Z,28.71
2022-08-23T10:00:41.582Z,28.85
2022-08-23T10:01:39.338Z,28.9
2022-08-23T10:02:38.637Z,28.94
2022-08-23T10:03:38.644Z,29.02
2022-08-23T10:04:38.980Z,29.11
2022-08-23T10:05:38.762Z,29.19
2022-08-23T10:06:38.693Z,29.17
2022-08-23T10:07:42.477Z,29.08
2022-08-23T10:08:43.099Z,28.85
2022-08-23T10:09:39.002Z,28.78
2022-08-23T10:10:38.768Z,28.84
2022-08-23T10:11:41.532Z,28.92
2022-08-23T10:12:38.678Z,28.98
2022-08-23T10:13:38.693Z,29.06
2022-08-23T10:14:38.941Z,29.13
2022-08-23T10:15:38.705Z,29.25
2022-08-23T10:16:38.565Z,29.45
2022-08-23T10:17:38.686Z,29.52
2022-08-23T10:18:38.757Z,29.38
2022-08-23T10:19:38.922Z,29.33
2022-08-23T10:20:38.735Z,29.38
2022-08-23T10:21:38.689Z,29.54
2022-08-23T10:22:44.575Z,29.6
2022-08-23T10:23:38.657Z,29.63
2022-08-23T10:24:38.994Z,29.58
2022-08-23T10:25:38.762Z,29.61
2022-08-23T10:26:38.708Z,29.66
2022-08-23T10:27:38.656Z,29.79
2022-08-23T10:28:39.465Z,29.83
2022-08-23T10:29:38.917Z,29.84
2022-08-23T10:30:38.642Z,29.81
2022-08-23T10:31:38.649Z,29.86
2022-08-23T10:32:38.718Z,29.83
2022-08-23T10:33:41.691Z,29.87
2022-08-23T10:34:38.927Z,29.93
2022-08-23T10:35:38.662Z,30.11
2022-08-23T10:36:38.597Z,30.15
2022-08-23T10:37:38.992Z,30.18
2022-08-23T10:38:38.739Z,30.05
2022-08-23T10:39:38.659Z,29.88
2022-08-23T10:40:38.694Z,29.93
2022-08-23T10:41:38.581Z,30.03
2022-08-23T10:42:38.646Z,30.02
2022-08-23T10:43:38.693Z,30.06
2022-08-23T10:44:44.593Z,30.07
2022-08-23T10:45:38.762Z,30.19
2022-08-23T10:46:38.796Z,30.23
2022-08-23T10:47:38.587Z,30.32
2022-08-23T10:48:38.690Z,30.41
2022-08-23T10:49:38.931Z,30.45
2022-08-23T10:50:38.671Z,30.55
2022-08-23T10:51:40.532Z,30.68
2022-08-23T10:52:38.922Z,30.73
2022-08-23T10:53:38.767Z,30.82
2022-08-23T10:54:39.005Z,30.89
2022-08-23T10:55:41.641Z,30.97
2022-08-23T10:56:44.337Z,31.01
2022-08-23T10:57:38.667Z,31.1
2022-08-23T10:58:38.559Z,31.18
2022-08-23T10:59:38.919Z,31.21
2022-08-23T11:00:38.735Z,31.24
2022-08-23T11:01:38.594Z,31.11
2022-08-23T11:02:38.773Z,31.06
2022-08-23T11:03:38.687Z,31.07
2022-08-23T11:04:38.923Z,31.03
2022-08-23T11:05:38.555Z,31.08
2022-08-23T11:06:38.667Z,31.21
2022-08-23T11:07:39.000Z,31.34
2022-08-23T11:08:38.681Z,31.45
2022-08-23T11:09:38.993Z,31.41
2022-08-23T11:10:38.670Z,31.31
2022-08-23T11:11:41.712Z,31.33
2022-08-23T11:12:38.626Z,31.39
2022-08-23T11:13:38.658Z,31.27
2022-08-23T11:14:38.919Z,31.22
2022-08-23T11:15:44.537Z,31.29
2022-08-23T11:16:38.766Z,31.31
2022-08-23T11:17:38.705Z,31.28
2022-08-23T11:18:38.663Z,31.26
2022-08-23T11:19:39.052Z,31.34
2022-08-23T11:20:38.774Z,31.38
2022-08-23T11:21:38.639Z,31.46
2022-08-23T11:22:44.566Z,31.52
2022-08-23T11:23:38.769Z,31.66
2022-08-23T11:24:39.009Z,31.86
2022-08-23T11:25:38.719Z,32.02
2022-08-23T11:26:38.688Z,32.07
2022-08-23T11:27:38.695Z,31.96
2022-08-23T11:28:38.702Z,31.81
2022-08-23T11:29:38.995Z,31.74
2022-08-23T11:30:38.692Z,31.73
2022-08-23T11:31:38.575Z,31.8
2022-08-23T11:32:38.607Z,31.81
2022-08-23T11:33:41.686Z,31.74
2022-08-23T11:34:38.923Z,31.78
2022-08-23T11:35:40.535Z,31.88
2022-08-23T11:36:38.707Z,32.06
2022-08-23T11:37:38.992Z,32.14
2022-08-23T11:38:38.727Z,32.13
2022-08-23T11:39:39.036Z,32.19
2022-08-23T11:40:38.692Z,32.19
2022-08-23T11:41:38.729Z,32.18
2022-08-23T11:42:38.701Z,32.14
2022-08-23T11:43:38.642Z,32.13
2022-08-23T11:44:44.568Z,32.15
2022-08-23T11:45:38.743Z,32.22
2022-08-23T11:46:38.608Z,32.15
2022-08-23T11:47:38.748Z,31.88
2022-08-23T11:48:43.663Z,31.78
2022-08-23T11:49:38.931Z,31.49
2022-08-23T11:50:38.695Z,31.13
2022-08-23T11:51:38.696Z,30.94
2022-08-23T11:52:38.923Z,30.94
2022-08-23T11:53:38.758Z,31.26
2022-08-23T11:54:38.926Z,31.5
2022-08-23T11:55:41.628Z,31.7
2022-08-23T11:56:38.729Z,31.88
2022-08-23T11:57:38.673Z,31.84
2022-08-23T11:58:38.671Z,31.69
2022-08-23T11:59:41.827Z,31.71
2022-08-23T12:00:38.715Z,31.78
2022-08-23T12:01:38.691Z,31.83
2022-08-23T12:02:38.777Z,31.61
2022-08-23T12:03:38.868Z,31.38
2022-08-23T12:04:38.744Z,31.31
2022-08-23T12:05:38.745Z,31.21
2022-08-23T12:06:41.704Z,31.04
2022-08-23T12:07:38.978Z,30.91
2022-08-23T12:08:38.564Z,30.82
2022-08-23T12:09:38.994Z,30.65
2022-08-23T12:10:38.725Z,30.47
2022-08-23T12:11:38.647Z,30.59
2022-08-23T12:12:40.976Z,30.74
2022-08-23T12:13:38.693Z,31.27
2022-08-23T12:14:38.932Z,31.5
2022-08-23T12:15:38.676Z,31.65
2022-08-23T12:16:44.209Z,31.75
2022-08-23T12:17:41.705Z,32.04
2022-08-23T12:18:38.654Z,32.18
2022-08-23T12:19:40.552Z,32.25
2022-08-23T12:20:38.763Z,32.3
2022-08-23T12:21:38.683Z,32.3
2022-08-23T12:22:38.945Z,32.31
2022-08-23T12:23:38.637Z,32.34
2022-08-23T12:24:38.922Z,32.22
2022-08-23T12:25:38.618Z,32.31
2022-08-23T12:26:38.566Z,32.42
2022-08-23T12:27:38.556Z,32.24
2022-08-23T12:28:41.587Z,32.03
2022-08-23T12:29:39.608Z,31.99
2022-08-23T12:30:42.787Z,32.22
2022-08-23T12:31:38.625Z,32.4
2022-08-23T12:32:38.706Z,32.47
2022-08-23T12:33:38.735Z,32.43
2022-08-23T12:34:39.234Z,32.01
2022-08-23T12:35:38.741Z,31.77
2022-08-23T12:36:38.676Z,31.67
2022-08-23T12:37:38.961Z,31.41
2022-08-23T12:38:38.652Z,31.34
2022-08-23T12:39:39.048Z,31.11
2022-08-23T12:40:42.035Z,31.03
2022-08-23T12:41:38.731Z,31.2
2022-08-23T12:42:38.705Z,31.25
2022-08-23T12:43:38.657Z,31.1
2022-08-23T12:44:44.635Z,30.96
2022-08-23T12:45:38.746Z,30.89
2022-08-23T12:46:38.704Z,30.86
2022-08-23T12:47:42.870Z,30.89
2022-08-23T12:48:38.665Z,31.12
2022-08-23T12:49:38.639Z,31.26
2022-08-23T12:50:38.709Z,31.53
2022-08-23T12:51:38.696Z,31.82
2022-08-23T12:52:38.935Z,31.74
2022-08-23T12:53:44.034Z,31.62
2022-08-23T12:54:38.928Z,31.22
2022-08-23T12:55:41.686Z,31.04
2022-08-23T12:56:38.676Z,30.97
2022-08-23T12:57:38.685Z,31.08
2022-08-23T12:58:38.769Z,31.32